sensor_id;sensor_type;location;lat;lon;timestamp;pressure;altitude;pressure_sealevel;temperature;humidity
60267;BME280;46125;61.360;-149.532;2023-06-14T00:01:42;100376.89;;;12.94;50.77
60267;BME280;46125;61.360;-149.532;2023-06-14T00:04:11;100377.15;;;13.48;49.64
60267;BME280;46125;61.360;-149.532;2023-06-14T00:06:40;100379.06;;;13.26;49.84
60267;BME280;46125;61.360;-149.532;2023-06-14T00:09:08;100376.44;;;13.16;48.80
60267;BME280;46125;61.360;-149.532;2023-06-14T00:11:37;100373.20;;;14.02;46.30
60267;BME280;46125;61.360;-149.532;2023-06-14T00:14:05;100375.25;;;13.50;50.35
60267;BME280;46125;61.360;-149.532;2023-06-14T00:16:34;100376.02;;;13.96;50.21
60267;BME280;46125;61.360;-149.532;2023-06-14T00:19:03;100374.25;;;14.32;46.71
60267;BME280;46125;61.360;-149.532;2023-06-14T00:21:31;100369.42;;;14.76;45.89
60267;BME280;46125;61.360;-149.532;2023-06-14T00:24:00;100367.25;;;13.55;50.78
60267;BME280;46125;61.360;-149.532;2023-06-14T00:26:28;100368.68;;;14.48;47.93
60267;BME280;46125;61.360;-149.532;2023-06-14T00:28:57;100366.02;;;13.94;50.31
60267;BME280;46125;61.360;-149.532;2023-06-14T00:31:25;100366.40;;;12.96;53.10
60267;BME280;46125;61.360;-149.532;2023-06-14T00:33:54;100365.09;;;13.60;54.54
60267;BME280;46125;61.360;-149.532;2023-06-14T00:36:28;100367.20;;;10.58;59.68
60267;BME280;46125;61.360;-149.532;2023-06-14T00:38:56;100363.86;;;12.94;54.52
60267;BME280;46125;61.360;-149.532;2023-06-14T00:41:25;100359.53;;;13.73;56.04
60267;BME280;46125;61.360;-149.532;2023-06-14T00:43:53;100362.26;;;12.77;56.29
60267;BME280;46125;61.360;-149.532;2023-06-14T00:46:22;100360.34;;;12.54;57.99
60267;BME280;46125;61.360;-149.532;2023-06-14T00:48:55;100359.82;;;13.05;57.49
60267;BME280;46125;61.360;-149.532;2023-06-14T00:51:25;100361.03;;;13.01;55.25
60267;BME280;46125;61.360;-149.532;2023-06-14T00:53:53;100361.87;;;11.08;61.59
60267;BME280;46125;61.360;-149.532;2023-06-14T00:56:22;100360.00;;;11.65;59.33
60267;BME280;46125;61.360;-149.532;2023-06-14T00:58:51;100359.03;;;11.53;61.11
60267;BME280;46125;61.360;-149.532;2023-06-14T01:01:19;100362.30;;;12.20;58.08
60267;BME280;46125;61.360;-149.532;2023-06-14T01:03:48;100362.46;;;11.70;60.30
60267;BME280;46125;61.360;-149.532;2023-06-14T01:06:23;100363.65;;;11.37;60.64
60267;BME280;46125;61.360;-149.532;2023-06-14T01:09:06;100364.67;;;11.09;63.78
60267;BME280;46125;61.360;-149.532;2023-06-14T01:11:45;100364.75;;;11.27;62.23
60267;BME280;46125;61.360;-149.532;2023-06-14T01:14:22;100366.35;;;11.30;60.64
60267;BME280;46125;61.360;-149.532;2023-06-14T01:16:51;100360.46;;;11.60;58.58
60267;BME280;46125;61.360;-149.532;2023-06-14T01:19:19;100362.81;;;10.87;61.14
60267;BME280;46125;61.360;-149.532;2023-06-14T01:21:53;100361.51;;;11.77;57.03
60267;BME280;46125;61.360;-149.532;2023-06-14T01:24:22;100357.89;;;11.07;60.80
60267;BME280;46125;61.360;-149.532;2023-06-14T01:26:51;100352.95;;;12.21;58.78
60267;BME280;46125;61.360;-149.532;2023-06-14T01:29:20;100353.96;;;9.21;68.45
60267;BME280;46125;61.360;-149.532;2023-06-14T01:31:49;100347.84;;;10.50;67.37
60267;BME280;46125;61.360;-149.532;2023-06-14T01:34:18;100344.74;;;11.91;60.10
60267;BME280;46125;61.360;-149.532;2023-06-14T01:36:48;100348.31;;;11.85;59.30
60267;BME280;46125;61.360;-149.532;2023-06-14T01:39:18;100349.34;;;11.97;59.56
60267;BME280;46125;61.360;-149.532;2023-06-14T01:41:47;100352.45;;;12.40;59.04
60267;BME280;46125;61.360;-149.532;2023-06-14T01:44:18;100357.16;;;12.33;58.51
60267;BME280;46125;61.360;-149.532;2023-06-14T01:46:47;100364.67;;;12.32;60.54
60267;BME280;46125;61.360;-149.532;2023-06-14T01:49:16;100367.49;;;11.84;64.31
60267;BME280;46125;61.360;-149.532;2023-06-14T01:51:44;100367.81;;;11.28;64.65
60267;BME280;46125;61.360;-149.532;2023-06-14T01:54:13;100362.67;;;11.33;65.60
60267;BME280;46125;61.360;-149.532;2023-06-14T01:56:41;100360.77;;;11.73;64.84
60267;BME280;46125;61.360;-149.532;2023-06-14T01:59:10;100364.30;;;11.18;69.08
60267;BME280;46125;61.360;-149.532;2023-06-14T02:01:43;100358.33;;;12.12;65.73
60267;BME280;46125;61.360;-149.532;2023-06-14T02:04:12;100361.04;;;10.43;67.22
60267;BME280;46125;61.360;-149.532;2023-06-14T02:06:40;100363.97;;;11.66;65.21
60267;BME280;46125;61.360;-149.532;2023-06-14T02:09:09;100365.36;;;12.37;62.17
60267;BME280;46125;61.360;-149.532;2023-06-14T02:11:37;100362.24;;;12.44;61.57
60267;BME280;46125;61.360;-149.532;2023-06-14T02:14:06;100359.53;;;13.42;58.82
60267;BME280;46125;61.360;-149.532;2023-06-14T02:16:34;100358.13;;;12.78;60.97
60267;BME280;46125;61.360;-149.532;2023-06-14T02:19:08;100355.88;;;13.27;61.60
60267;BME280;46125;61.360;-149.532;2023-06-14T02:21:37;100354.15;;;13.05;61.95
60267;BME280;46125;61.360;-149.532;2023-06-14T02:24:05;100348.94;;;13.61;59.10
60267;BME280;46125;61.360;-149.532;2023-06-14T02:26:39;100352.01;;;12.50;62.19
60267;BME280;46125;61.360;-149.532;2023-06-14T02:29:07;100344.99;;;13.93;59.84
60267;BME280;46125;61.360;-149.532;2023-06-14T02:31:37;100340.53;;;14.16;60.82
60267;BME280;46125;61.360;-149.532;2023-06-14T02:34:06;100336.60;;;13.97;60.10
60267;BME280;46125;61.360;-149.532;2023-06-14T02:36:34;100337.77;;;12.53;62.58
60267;BME280;46125;61.360;-149.532;2023-06-14T02:39:13;100331.37;;;13.61;62.06
60267;BME280;46125;61.360;-149.532;2023-06-14T02:41:42;100330.23;;;13.53;62.48
60267;BME280;46125;61.360;-149.532;2023-06-14T02:44:10;100332.34;;;13.69;62.78
60267;BME280;46125;61.360;-149.532;2023-06-14T02:46:39;100334.53;;;12.62;60.26
60267;BME280;46125;61.360;-149.532;2023-06-14T02:49:07;100334.65;;;14.16;58.97
60267;BME280;46125;61.360;-149.532;2023-06-14T02:51:35;100332.33;;;14.80;54.72
60267;BME280;46125;61.360;-149.532;2023-06-14T02:54:04;100330.07;;;13.21;60.79
60267;BME280;46125;61.360;-149.532;2023-06-14T02:56:32;100323.91;;;13.81;60.40
60267;BME280;46125;61.360;-149.532;2023-06-14T02:59:01;100324.03;;;12.86;61.53
60267;BME280;46125;61.360;-149.532;2023-06-14T03:01:29;100320.65;;;14.01;58.96
60267;BME280;46125;61.360;-149.532;2023-06-14T03:03:58;100322.09;;;14.42;54.12
60267;BME280;46125;61.360;-149.532;2023-06-14T03:06:26;100323.49;;;13.65;57.84
60267;BME280;46125;61.360;-149.532;2023-06-14T03:12:11;100319.86;;;14.30;57.39
60267;BME280;46125;61.360;-149.532;2023-06-14T03:14:40;100316.63;;;13.64;54.35
60267;BME280;46125;61.360;-149.532;2023-06-14T03:17:08;100326.79;;;12.55;55.82
60267;BME280;46125;61.360;-149.532;2023-06-14T03:19:37;100328.80;;;12.23;59.06
60267;BME280;46125;61.360;-149.532;2023-06-14T03:22:05;100327.13;;;12.01;59.43
60267;BME280;46125;61.360;-149.532;2023-06-14T03:24:34;100324.80;;;12.80;59.88
60267;BME280;46125;61.360;-149.532;2023-06-14T03:27:03;100319.44;;;13.38;59.71
60267;BME280;46125;61.360;-149.532;2023-06-14T03:29:31;100321.06;;;11.72;61.97
60267;BME280;46125;61.360;-149.532;2023-06-14T03:32:01;100318.25;;;13.24;57.66
60267;BME280;46125;61.360;-149.532;2023-06-14T03:34:30;100320.66;;;13.22;58.53
60267;BME280;46125;61.360;-149.532;2023-06-14T03:36:59;100320.11;;;12.53;58.33
60267;BME280;46125;61.360;-149.532;2023-06-14T03:39:28;100317.04;;;12.57;57.81
60267;BME280;46125;61.360;-149.532;2023-06-14T03:42:02;100313.16;;;12.33;56.79
60267;BME280;46125;61.360;-149.532;2023-06-14T03:44:30;100301.59;;;14.07;54.41
60267;BME280;46125;61.360;-149.532;2023-06-14T03:46:59;100297.96;;;14.61;52.50
60267;BME280;46125;61.360;-149.532;2023-06-14T03:49:29;100295.80;;;12.91;54.65
60267;BME280;46125;61.360;-149.532;2023-06-14T03:51:57;100295.86;;;13.43;52.80
60267;BME280;46125;61.360;-149.532;2023-06-14T03:54:27;100291.34;;;13.90;53.15
60267;BME280;46125;61.360;-149.532;2023-06-14T03:56:55;100290.58;;;13.67;54.49
60267;BME280;46125;61.360;-149.532;2023-06-14T03:59:29;100295.19;;;13.20;52.70
60267;BME280;46125;61.360;-149.532;2023-06-14T04:01:57;100293.28;;;13.60;53.06
60267;BME280;46125;61.360;-149.532;2023-06-14T04:04:26;100289.71;;;14.05;52.83
60267;BME280;46125;61.360;-149.532;2023-06-14T04:06:54;100286.85;;;13.29;52.12
60267;BME280;46125;61.360;-149.532;2023-06-14T04:09:24;100288.51;;;13.56;52.10
60267;BME280;46125;61.360;-149.532;2023-06-14T04:11:53;100287.96;;;13.69;51.13
60267;BME280;46125;61.360;-149.532;2023-06-14T04:14:22;100288.83;;;14.04;48.68
60267;BME280;46125;61.360;-149.532;2023-06-14T04:16:50;100290.73;;;14.13;48.40
60267;BME280;46125;61.360;-149.532;2023-06-14T04:19:19;100288.21;;;14.71;50.13
60267;BME280;46125;61.360;-149.532;2023-06-14T04:21:47;100288.90;;;13.74;50.91
60267;BME280;46125;61.360;-149.532;2023-06-14T04:24:16;100287.50;;;12.98;53.54
60267;BME280;46125;61.360;-149.532;2023-06-14T04:26:45;100287.07;;;13.08;53.46
60267;BME280;46125;61.360;-149.532;2023-06-14T04:29:14;100289.92;;;13.65;53.66
60267;BME280;46125;61.360;-149.532;2023-06-14T04:31:43;100288.46;;;13.11;53.60
60267;BME280;46125;61.360;-149.532;2023-06-14T04:34:16;100290.98;;;13.86;52.41
60267;BME280;46125;61.360;-149.532;2023-06-14T04:36:45;100289.90;;;14.07;49.67
60267;BME280;46125;61.360;-149.532;2023-06-14T04:39:14;100293.63;;;13.01;52.08
60267;BME280;46125;61.360;-149.532;2023-06-14T04:41:55;100295.02;;;12.66;51.50
60267;BME280;46125;61.360;-149.532;2023-06-14T04:44:24;100297.79;;;12.49;50.48
60267;BME280;46125;61.360;-149.532;2023-06-14T04:46:53;100297.77;;;13.39;48.44
60267;BME280;46125;61.360;-149.532;2023-06-14T04:49:21;100299.89;;;12.92;56.04
60267;BME280;46125;61.360;-149.532;2023-06-14T04:51:50;100295.15;;;14.03;49.77
60267;BME280;46125;61.360;-149.532;2023-06-14T04:54:18;100294.06;;;13.67;51.93
60267;BME280;46125;61.360;-149.532;2023-06-14T04:56:47;100292.02;;;12.84;51.02
60267;BME280;46125;61.360;-149.532;2023-06-14T04:59:16;100293.60;;;12.78;53.17
60267;BME280;46125;61.360;-149.532;2023-06-14T05:01:45;100291.37;;;14.19;52.49
60267;BME280;46125;61.360;-149.532;2023-06-14T05:04:13;100290.62;;;13.98;52.37
60267;BME280;46125;61.360;-149.532;2023-06-14T05:06:42;100288.26;;;13.44;48.93
60267;BME280;46125;61.360;-149.532;2023-06-14T05:09:10;100290.54;;;14.09;49.13
60267;BME280;46125;61.360;-149.532;2023-06-14T05:11:39;100295.93;;;13.22;49.53
60267;BME280;46125;61.360;-149.532;2023-06-14T05:14:12;100295.11;;;13.98;50.96
60267;BME280;46125;61.360;-149.532;2023-06-14T05:16:41;100294.90;;;13.55;52.37
60267;BME280;46125;61.360;-149.532;2023-06-14T05:19:15;100288.20;;;14.96;49.91
60267;BME280;46125;61.360;-149.532;2023-06-14T05:21:43;100286.05;;;14.51;44.47
60267;BME280;46125;61.360;-149.532;2023-06-14T05:24:11;100284.36;;;14.47;45.63
60267;BME280;46125;61.360;-149.532;2023-06-14T05:26:40;100283.09;;;13.43;45.02
60267;BME280;46125;61.360;-149.532;2023-06-14T05:29:08;100283.92;;;14.68;44.40
60267;BME280;46125;61.360;-149.532;2023-06-14T05:31:37;100283.80;;;13.77;46.13
60267;BME280;46125;61.360;-149.532;2023-06-14T05:34:06;100283.97;;;14.79;45.55
60267;BME280;46125;61.360;-149.532;2023-06-14T05:36:35;100280.30;;;14.36;47.85
60267;BME280;46125;61.360;-149.532;2023-06-14T05:39:03;100278.24;;;14.64;47.76
60267;BME280;46125;61.360;-149.532;2023-06-14T05:41:32;100275.79;;;14.61;47.41
60267;BME280;46125;61.360;-149.532;2023-06-14T05:44:06;100278.20;;;14.74;47.51
60267;BME280;46125;61.360;-149.532;2023-06-14T05:46:34;100276.55;;;14.07;48.83
60267;BME280;46125;61.360;-149.532;2023-06-14T05:49:13;100278.30;;;14.37;49.33
60267;BME280;46125;61.360;-149.532;2023-06-14T05:52:02;100276.83;;;13.69;48.34
60267;BME280;46125;61.360;-149.532;2023-06-14T05:54:30;100286.18;;;11.69;54.19
60267;BME280;46125;61.360;-149.532;2023-06-14T05:56:58;100279.26;;;13.17;51.79
60267;BME280;46125;61.360;-149.532;2023-06-14T05:59:27;100279.87;;;13.52;50.30
60267;BME280;46125;61.360;-149.532;2023-06-14T06:01:55;100279.57;;;13.32;50.33
60267;BME280;46125;61.360;-149.532;2023-06-14T06:04:24;100283.59;;;12.29;53.11
60267;BME280;46125;61.360;-149.532;2023-06-14T06:06:52;100285.45;;;12.44;52.83
60267;BME280;46125;61.360;-149.532;2023-06-14T06:09:21;100284.56;;;12.81;52.02
60267;BME280;46125;61.360;-149.532;2023-06-14T06:11:50;100287.57;;;11.71;55.14
60267;BME280;46125;61.360;-149.532;2023-06-14T06:14:19;100287.92;;;10.29;59.32
60267;BME280;46125;61.360;-149.532;2023-06-14T06:16:47;100290.79;;;10.76;59.54
60267;BME280;46125;61.360;-149.532;2023-06-14T06:19:16;100287.97;;;11.99;54.82
60267;BME280;46125;61.360;-149.532;2023-06-14T06:21:44;100291.30;;;11.94;54.99
60267;BME280;46125;61.360;-149.532;2023-06-14T06:24:13;100289.19;;;12.47;52.96
60267;BME280;46125;61.360;-149.532;2023-06-14T06:26:46;100283.28;;;12.82;51.99
60267;BME280;46125;61.360;-149.532;2023-06-14T06:29:15;100285.45;;;12.70;52.56
60267;BME280;46125;61.360;-149.532;2023-06-14T06:31:44;100282.93;;;13.00;51.49
60267;BME280;46125;61.360;-149.532;2023-06-14T06:34:12;100280.25;;;13.36;51.16
60267;BME280;46125;61.360;-149.532;2023-06-14T06:36:41;100283.98;;;13.08;51.51
60267;BME280;46125;61.360;-149.532;2023-06-14T06:39:09;100283.70;;;13.39;52.77
60267;BME280;46125;61.360;-149.532;2023-06-14T06:41:44;100282.92;;;13.09;52.79
60267;BME280;46125;61.360;-149.532;2023-06-14T06:44:13;100281.09;;;12.99;52.34
60267;BME280;46125;61.360;-149.532;2023-06-14T06:46:43;100279.06;;;13.33;52.05
60267;BME280;46125;61.360;-149.532;2023-06-14T06:49:11;100280.51;;;13.19;51.80
60267;BME280;46125;61.360;-149.532;2023-06-14T06:51:42;100283.05;;;13.21;51.91
60267;BME280;46125;61.360;-149.532;2023-06-14T06:54:12;100285.33;;;13.25;51.85
60267;BME280;46125;61.360;-149.532;2023-06-14T06:56:40;100286.89;;;13.05;51.76
60267;BME280;46125;61.360;-149.532;2023-06-14T06:59:09;100289.82;;;13.27;51.55
60267;BME280;46125;61.360;-149.532;2023-06-14T07:01:37;100286.93;;;12.84;51.10
60267;BME280;46125;61.360;-149.532;2023-06-14T07:04:06;100286.47;;;13.24;50.76
60267;BME280;46125;61.360;-149.532;2023-06-14T07:06:34;100287.82;;;13.18;50.44
60267;BME280;46125;61.360;-149.532;2023-06-14T07:09:03;100284.42;;;12.85;50.71
60267;BME280;46125;61.360;-149.532;2023-06-14T07:11:32;100282.51;;;13.05;50.57
60267;BME280;46125;61.360;-149.532;2023-06-14T07:14:01;100280.56;;;12.98;50.76
60267;BME280;46125;61.360;-149.532;2023-06-14T07:16:29;100276.52;;;12.89;50.76
60267;BME280;46125;61.360;-149.532;2023-06-14T07:18:58;100281.00;;;12.70;51.33
60267;BME280;46125;61.360;-149.532;2023-06-14T07:21:26;100286.40;;;10.74;57.34
60267;BME280;46125;61.360;-149.532;2023-06-14T07:23:55;100286.65;;;11.41;55.40
60267;BME280;46125;61.360;-149.532;2023-06-14T07:26:23;100289.03;;;11.44;56.10
60267;BME280;46125;61.360;-149.532;2023-06-14T07:28:54;100288.02;;;11.22;55.62
60267;BME280;46125;61.360;-149.532;2023-06-14T07:31:22;100287.53;;;11.89;54.09
60267;BME280;46125;61.360;-149.532;2023-06-14T07:33:51;100290.13;;;12.23;51.98
60267;BME280;46125;61.360;-149.532;2023-06-14T07:36:20;100290.24;;;12.03;51.66
60267;BME280;46125;61.360;-149.532;2023-06-14T07:38:49;100290.58;;;10.91;55.18
60267;BME280;46125;61.360;-149.532;2023-06-14T07:41:17;100292.30;;;11.18;54.88
60267;BME280;46125;61.360;-149.532;2023-06-14T07:43:46;100293.97;;;11.16;53.85
60267;BME280;46125;61.360;-149.532;2023-06-14T07:46:15;100296.59;;;11.77;52.53
60267;BME280;46125;61.360;-149.532;2023-06-14T07:48:44;100297.87;;;12.05;52.17
60267;BME280;46125;61.360;-149.532;2023-06-14T07:51:12;100299.65;;;11.78;53.61
60267;BME280;46125;61.360;-149.532;2023-06-14T07:53:41;100295.03;;;11.83;53.42
60267;BME280;46125;61.360;-149.532;2023-06-14T07:56:09;100296.48;;;11.98;52.60
60267;BME280;46125;61.360;-149.532;2023-06-14T07:58:38;100296.62;;;11.99;52.20
60267;BME280;46125;61.360;-149.532;2023-06-14T08:01:06;100297.42;;;11.80;52.47
60267;BME280;46125;61.360;-149.532;2023-06-14T08:03:35;100296.03;;;9.90;56.79
60267;BME280;46125;61.360;-149.532;2023-06-14T08:06:03;100297.62;;;10.85;54.79
60267;BME280;46125;61.360;-149.532;2023-06-14T08:08:32;100295.64;;;11.16;53.56
60267;BME280;46125;61.360;-149.532;2023-06-14T08:11:00;100294.12;;;11.30;53.04
60267;BME280;46125;61.360;-149.532;2023-06-14T08:13:29;100296.00;;;11.37;51.77
60267;BME280;46125;61.360;-149.532;2023-06-14T08:15:58;100296.26;;;11.39;51.37
60267;BME280;46125;61.360;-149.532;2023-06-14T08:18:26;100301.47;;;11.23;51.76
60267;BME280;46125;61.360;-149.532;2023-06-14T08:20:55;100300.19;;;11.20;51.57
60267;BME280;46125;61.360;-149.532;2023-06-14T08:23:23;100296.69;;;11.13;51.67
60267;BME280;46125;61.360;-149.532;2023-06-14T08:25:52;100299.36;;;11.05;52.01
60267;BME280;46125;61.360;-149.532;2023-06-14T08:28:21;100298.26;;;11.05;51.80
60267;BME280;46125;61.360;-149.532;2023-06-14T08:30:49;100298.77;;;10.93;51.86
60267;BME280;46125;61.360;-149.532;2023-06-14T08:33:17;100301.99;;;11.07;51.89
60267;BME280;46125;61.360;-149.532;2023-06-14T08:35:46;100303.51;;;10.86;51.46
60267;BME280;46125;61.360;-149.532;2023-06-14T08:38:14;100307.38;;;10.80;52.22
60267;BME280;46125;61.360;-149.532;2023-06-14T08:40:43;100308.87;;;10.47;54.00
60267;BME280;46125;61.360;-149.532;2023-06-14T08:43:13;100310.00;;;10.17;54.84
60267;BME280;46125;61.360;-149.532;2023-06-14T08:45:42;100309.71;;;10.02;54.88
60267;BME280;46125;61.360;-149.532;2023-06-14T08:48:11;100309.42;;;9.96;55.06
60267;BME280;46125;61.360;-149.532;2023-06-14T08:50:40;100311.22;;;10.14;54.57
60267;BME280;46125;61.360;-149.532;2023-06-14T08:53:12;100312.37;;;10.15;54.77
60267;BME280;46125;61.360;-149.532;2023-06-14T08:55:41;100314.00;;;10.21;54.07
60267;BME280;46125;61.360;-149.532;2023-06-14T08:58:10;100315.30;;;10.37;54.06
60267;BME280;46125;61.360;-149.532;2023-06-14T09:00:38;100314.48;;;10.82;54.16
60267;BME280;46125;61.360;-149.532;2023-06-14T09:03:07;100316.24;;;10.62;54.37
60267;BME280;46125;61.360;-149.532;2023-06-14T09:05:35;100319.39;;;10.61;54.10
60267;BME280;46125;61.360;-149.532;2023-06-14T09:08:04;100318.24;;;11.26;54.09
60267;BME280;46125;61.360;-149.532;2023-06-14T09:10:33;100322.30;;;11.10;54.31
60267;BME280;46125;61.360;-149.532;2023-06-14T09:13:02;100325.20;;;11.32;54.83
60267;BME280;46125;61.360;-149.532;2023-06-14T09:15:32;100327.23;;;11.05;55.01
60267;BME280;46125;61.360;-149.532;2023-06-14T09:18:02;100323.16;;;11.02;54.82
60267;BME280;46125;61.360;-149.532;2023-06-14T09:20:31;100315.11;;;11.46;54.57
60267;BME280;46125;61.360;-149.532;2023-06-14T09:23:01;100315.24;;;11.22;54.71
60267;BME280;46125;61.360;-149.532;2023-06-14T09:25:31;100314.06;;;11.24;55.30
60267;BME280;46125;61.360;-149.532;2023-06-14T09:27:59;100314.17;;;11.42;55.01
60267;BME280;46125;61.360;-149.532;2023-06-14T09:30:29;100318.43;;;11.50;55.02
60267;BME280;46125;61.360;-149.532;2023-06-14T09:32:57;100318.37;;;11.64;54.43
60267;BME280;46125;61.360;-149.532;2023-06-14T09:35:26;100316.56;;;11.65;54.16
60267;BME280;46125;61.360;-149.532;2023-06-14T09:37:55;100316.95;;;11.53;54.31
60267;BME280;46125;61.360;-149.532;2023-06-14T09:40:24;100319.60;;;11.56;54.03
60267;BME280;46125;61.360;-149.532;2023-06-14T09:42:53;100323.75;;;11.22;55.11
60267;BME280;46125;61.360;-149.532;2023-06-14T09:45:21;100323.47;;;11.43;54.58
60267;BME280;46125;61.360;-149.532;2023-06-14T09:47:50;100325.07;;;10.16;58.20
60267;BME280;46125;61.360;-149.532;2023-06-14T09:50:20;100325.34;;;10.85;56.95
60267;BME280;46125;61.360;-149.532;2023-06-14T09:52:53;100327.39;;;11.13;56.32
60267;BME280;46125;61.360;-149.532;2023-06-14T09:55:29;100327.42;;;10.94;56.27
60267;BME280;46125;61.360;-149.532;2023-06-14T09:57:58;100331.02;;;11.13;56.06
60267;BME280;46125;61.360;-149.532;2023-06-14T10:00:28;100330.57;;;11.14;56.01
60267;BME280;46125;61.360;-149.532;2023-06-14T10:03:03;100332.68;;;11.07;56.86
60267;BME280;46125;61.360;-149.532;2023-06-14T10:05:36;100331.64;;;10.92;57.11
60267;BME280;46125;61.360;-149.532;2023-06-14T10:08:07;100337.74;;;11.09;56.93
60267;BME280;46125;61.360;-149.532;2023-06-14T10:10:38;100337.87;;;11.20;56.86
60267;BME280;46125;61.360;-149.532;2023-06-14T10:13:08;100337.27;;;11.14;56.59
60267;BME280;46125;61.360;-149.532;2023-06-14T10:15:44;100337.02;;;11.34;56.25
60267;BME280;46125;61.360;-149.532;2023-06-14T10:18:21;100336.43;;;11.58;55.72
60267;BME280;46125;61.360;-149.532;2023-06-14T10:21:00;100332.77;;;11.62;55.65
60267;BME280;46125;61.360;-149.532;2023-06-14T10:23:35;100332.82;;;11.31;56.01
60267;BME280;46125;61.360;-149.532;2023-06-14T10:26:05;100335.95;;;11.14;56.70
60267;BME280;46125;61.360;-149.532;2023-06-14T10:28:37;100334.72;;;10.96;57.20
60267;BME280;46125;61.360;-149.532;2023-06-14T10:31:08;100336.57;;;10.37;59.09
60267;BME280;46125;61.360;-149.532;2023-06-14T10:33:40;100342.73;;;10.96;58.17
60267;BME280;46125;61.360;-149.532;2023-06-14T10:36:32;100344.23;;;10.57;59.37
60267;BME280;46125;61.360;-149.532;2023-06-14T10:39:04;100349.86;;;11.13;58.16
60267;BME280;46125;61.360;-149.532;2023-06-14T10:41:35;100349.50;;;11.12;57.68
60267;BME280;46125;61.360;-149.532;2023-06-14T10:44:43;100351.98;;;11.30;57.33
60267;BME280;46125;61.360;-149.532;2023-06-14T10:47:23;100353.39;;;11.58;56.49
60267;BME280;46125;61.360;-149.532;2023-06-14T10:49:53;100352.63;;;10.79;58.28
60267;BME280;46125;61.360;-149.532;2023-06-14T10:52:24;100352.92;;;11.12;57.28
60267;BME280;46125;61.360;-149.532;2023-06-14T10:55:03;100350.39;;;11.52;56.62
60267;BME280;46125;61.360;-149.532;2023-06-14T10:57:31;100347.40;;;11.60;56.47
60267;BME280;46125;61.360;-149.532;2023-06-14T11:00:00;100349.96;;;11.39;56.75
60267;BME280;46125;61.360;-149.532;2023-06-14T11:02:56;100351.96;;;11.55;56.41
60267;BME280;46125;61.360;-149.532;2023-06-14T11:05:46;100349.11;;;11.68;55.77
60267;BME280;46125;61.360;-149.532;2023-06-14T11:08:27;100346.64;;;11.78;55.43
60267;BME280;46125;61.360;-149.532;2023-06-14T11:11:07;100348.13;;;11.37;56.20
60267;BME280;46125;61.360;-149.532;2023-06-14T11:13:38;100351.24;;;11.21;56.78
60267;BME280;46125;61.360;-149.532;2023-06-14T11:16:12;100347.72;;;11.37;56.50
60267;BME280;46125;61.360;-149.532;2023-06-14T11:18:41;100350.64;;;11.42;56.34
60267;BME280;46125;61.360;-149.532;2023-06-14T11:21:10;100348.92;;;11.07;56.48
60267;BME280;46125;61.360;-149.532;2023-06-14T11:23:38;100346.47;;;11.47;55.97
60267;BME280;46125;61.360;-149.532;2023-06-14T11:26:07;100345.06;;;11.67;55.40
60267;BME280;46125;61.360;-149.532;2023-06-14T11:28:39;100347.53;;;11.08;56.14
60267;BME280;46125;61.360;-149.532;2023-06-14T11:31:08;100340.91;;;11.70;55.14
60267;BME280;46125;61.360;-149.532;2023-06-14T11:33:37;100339.30;;;11.78;54.81
60267;BME280;46125;61.360;-149.532;2023-06-14T11:36:06;100340.57;;;11.95;54.38
60267;BME280;46125;61.360;-149.532;2023-06-14T11:38:36;100342.49;;;11.64;54.68
60267;BME280;46125;61.360;-149.532;2023-06-14T11:41:04;100340.74;;;11.87;54.67
60267;BME280;46125;61.360;-149.532;2023-06-14T11:43:33;100337.66;;;11.36;55.85
60267;BME280;46125;61.360;-149.532;2023-06-14T11:46:01;100335.31;;;11.44;55.17
60267;BME280;46125;61.360;-149.532;2023-06-14T11:48:38;100333.35;;;11.14;55.62
60267;BME280;46125;61.360;-149.532;2023-06-14T11:51:06;100333.33;;;10.70;57.34
60267;BME280;46125;61.360;-149.532;2023-06-14T11:53:35;100335.87;;;11.28;55.53
60267;BME280;46125;61.360;-149.532;2023-06-14T11:56:04;100332.38;;;11.73;54.92
60267;BME280;46125;61.360;-149.532;2023-06-14T11:58:33;100330.95;;;11.61;53.85
60267;BME280;46125;61.360;-149.532;2023-06-14T12:01:04;100329.82;;;11.53;53.62
60267;BME280;46125;61.360;-149.532;2023-06-14T12:03:32;100327.62;;;11.39;54.27
60267;BME280;46125;61.360;-149.532;2023-06-14T12:06:06;100327.73;;;11.49;53.77
60267;BME280;46125;61.360;-149.532;2023-06-14T12:08:35;100329.60;;;11.32;54.20
60267;BME280;46125;61.360;-149.532;2023-06-14T12:11:04;100331.13;;;11.19;54.56
60267;BME280;46125;61.360;-149.532;2023-06-14T12:13:32;100330.01;;;11.32;54.13
60267;BME280;46125;61.360;-149.532;2023-06-14T12:16:02;100330.05;;;11.44;53.82
60267;BME280;46125;61.360;-149.532;2023-06-14T12:18:35;100329.49;;;11.39;54.18
60267;BME280;46125;61.360;-149.532;2023-06-14T12:21:04;100327.99;;;11.50;53.86
60267;BME280;46125;61.360;-149.532;2023-06-14T12:23:43;100328.30;;;11.61;53.57
60267;BME280;46125;61.360;-149.532;2023-06-14T12:26:14;100328.27;;;11.63;53.62
60267;BME280;46125;61.360;-149.532;2023-06-14T12:28:44;100327.26;;;11.52;54.53
60267;BME280;46125;61.360;-149.532;2023-06-14T12:31:13;100327.85;;;11.50;54.02
60267;BME280;46125;61.360;-149.532;2023-06-14T12:33:42;100326.41;;;10.81;54.93
60267;BME280;46125;61.360;-149.532;2023-06-14T12:36:11;100324.98;;;11.23;53.80
60267;BME280;46125;61.360;-149.532;2023-06-14T12:38:39;100321.87;;;11.34;53.02